createdAt,value
2023-02-19T00:01:39.118Z,4.50
2023-02-19T00:04:11.462Z,4.90
2023-02-19T00:06:42.221Z,4.80
2023-02-19T00:09:13.540Z,3.90
2023-02-19T00:11:44.294Z,3.50
2023-02-19T00:14:18.428Z,4.30
2023-02-19T00:16:49.093Z,4.30
2023-02-19T00:19:21.910Z,4.70
2023-02-19T00:21:53.331Z,4.20
2023-02-19T00:24:24.279Z,3.30
2023-02-19T00:26:54.638Z,3.90
2023-02-19T00:29:25.066Z,4.60
2023-02-19T00:31:55.595Z,4.20
2023-02-19T00:34:25.996Z,3.80
2023-02-19T00:36:56.288Z,3.30
2023-02-19T00:39:26.650Z,4.30
2023-02-19T00:41:57.232Z,3.60
2023-02-19T00:44:27.548Z,3.90
2023-02-19T00:46:57.842Z,3.60
2023-02-19T00:49:28.185Z,2.90
2023-02-19T00:51:58.541Z,4.20
2023-02-19T00:54:29.095Z,4.10
2023-02-19T00:56:59.580Z,3.40
2023-02-19T00:59:30.009Z,3.00
2023-02-19T01:02:00.406Z,3.80
2023-02-19T01:04:30.874Z,3.30
2023-02-19T01:07:01.335Z,3.10
2023-02-19T01:09:32.294Z,3.30
2023-02-19T01:12:02.855Z,3.50
2023-02-19T01:14:33.437Z,3.20
2023-02-19T01:17:04.435Z,2.50
2023-02-19T01:19:34.862Z,2.90
2023-02-19T01:22:05.229Z,2.70
2023-02-19T01:24:35.560Z,2.70
2023-02-19T01:27:06.212Z,2.80
2023-02-19T01:29:36.960Z,2.90
2023-02-19T01:32:07.450Z,3.00
2023-02-19T01:34:37.931Z,2.20
2023-02-19T01:37:12.100Z,2.40
2023-02-19T01:39:43.514Z,3.00
2023-02-19T01:42:17.557Z,2.10
2023-02-19T01:52:03.781Z,2.20
2023-02-19T01:54:35.966Z,2.40
2023-02-19T01:57:08.221Z,2.40
2023-02-19T01:59:39.319Z,2.30
2023-02-19T02:02:09.760Z,2.00
2023-02-19T02:04:40.274Z,2.00
2023-02-19T02:07:25.198Z,2.30
2023-02-19T02:10:13.920Z,1.30
2023-02-19T02:12:44.257Z,2.10
2023-02-19T02:15:15.006Z,2.40
2023-02-19T02:17:54.283Z,1.90
2023-02-19T02:20:36.434Z,2.00
2023-02-19T02:23:13.867Z,2.10
2023-02-19T02:25:59.104Z,1.20
2023-02-19T02:28:46.391Z,2.10
2023-02-19T02:31:19.503Z,1.90
2023-02-19T02:33:55.693Z,1.80
2023-02-19T02:36:28.305Z,1.80
2023-02-19T02:38:59.862Z,1.80
2023-02-19T02:41:30.694Z,1.60
2023-02-19T02:44:01.075Z,1.60
2023-02-19T02:46:35.481Z,1.50
2023-02-19T02:49:07.896Z,1.30
2023-02-19T02:51:41.521Z,1.30
2023-02-19T02:54:37.429Z,1.40
2023-02-19T02:57:14.685Z,1.20
2023-02-19T02:59:57.732Z,0.80
2023-02-19T03:02:31.015Z,1.00
2023-02-19T03:05:22.295Z,0.90
2023-02-19T03:07:56.291Z,1.10
2023-02-19T03:10:29.795Z,0.90
2023-02-19T03:13:19.168Z,1.00
2023-02-19T03:16:15.172Z,0.80
2023-02-19T03:19:06.855Z,1.30
2023-02-19T03:21:39.071Z,1.20
2023-02-19T03:24:29.940Z,1.10
2023-02-19T03:27:02.359Z,1.10
2023-02-19T03:29:38.760Z,1.20
2023-02-19T03:32:12.716Z,0.80
2023-02-19T03:34:45.335Z,1.10
2023-02-19T03:37:21.767Z,0.70
2023-02-19T03:39:52.693Z,0.90
2023-02-19T03:42:31.496Z,0.60
2023-02-19T03:45:10.746Z,0.60
2023-02-19T03:47:49.019Z,0.80
2023-02-19T03:50:21.164Z,1.20
2023-02-19T03:52:56.979Z,0.70
2023-02-19T03:55:31.296Z,0.40
2023-02-19T03:58:07.045Z,1.10
2023-02-19T04:00:41.531Z,0.90
2023-02-19T04:03:16.803Z,0.90
2023-02-19T04:05:49.718Z,0.80
2023-02-19T04:08:21.607Z,0.60
2023-02-19T04:10:56.911Z,0.70
2023-02-19T04:13:31.725Z,0.50
2023-02-19T04:18:34.032Z,0.90
2023-02-19T04:21:05.823Z,0.90
2023-02-19T04:23:38.756Z,0.90
2023-02-19T04:28:38.450Z,0.60
2023-02-19T04:31:09.541Z,0.80
2023-02-19T04:33:40.162Z,0.70
2023-02-19T04:36:12.701Z,2.70
2023-02-19T04:38:43.035Z,0.80
2023-02-19T04:41:13.392Z,0.80
2023-02-19T04:43:43.692Z,0.80
2023-02-19T04:46:14.029Z,0.90
2023-02-19T04:48:44.358Z,1.00
2023-02-19T04:51:14.698Z,0.60
2023-02-19T04:53:45.209Z,0.80
2023-02-19T04:56:17.379Z,0.70
2023-02-19T04:58:48.193Z,0.90
2023-02-19T05:01:18.722Z,0.80
2023-02-19T05:03:49.268Z,0.70
2023-02-19T05:06:19.623Z,0.90
2023-02-19T05:08:49.909Z,0.70
2023-02-19T05:11:20.470Z,0.80
2023-02-19T05:13:50.776Z,0.90
2023-02-19T05:16:21.220Z,0.80
2023-02-19T05:18:51.685Z,0.70
2023-02-19T05:21:22.030Z,0.90
2023-02-19T05:23:52.348Z,0.90
2023-02-19T05:26:24.503Z,0.80
2023-02-19T05:28:55.786Z,1.00
2023-02-19T05:31:26.330Z,1.00
2023-02-19T05:33:57.318Z,1.00
2023-02-19T05:36:27.709Z,1.00
2023-02-19T05:38:59.182Z,0.90
2023-02-19T05:41:31.031Z,0.80
2023-02-19T05:44:01.321Z,1.00
2023-02-19T05:46:32.332Z,1.00
2023-02-19T05:49:03.256Z,0.90
2023-02-19T05:51:34.019Z,0.90
2023-02-19T05:54:04.513Z,1.00
2023-02-19T05:56:36.422Z,1.30
2023-02-19T05:59:09.884Z,1.10
2023-02-19T06:01:40.245Z,1.00
2023-02-19T06:04:11.232Z,1.20
2023-02-19T06:06:41.917Z,0.90
2023-02-19T06:09:12.991Z,1.10
2023-02-19T06:11:44.046Z,0.80
2023-02-19T06:14:15.214Z,1.00
2023-02-19T06:16:49.161Z,1.40
2023-02-19T06:19:19.703Z,1.40
2023-02-19T06:21:52.159Z,1.20
2023-02-19T06:24:22.479Z,1.00
2023-02-19T06:26:52.812Z,0.90
2023-02-19T06:29:23.122Z,1.10
2023-02-19T06:31:53.776Z,1.20
2023-02-19T06:34:24.106Z,1.10
2023-02-19T06:36:54.555Z,1.30
2023-02-19T06:39:24.906Z,0.80
2023-02-19T06:41:57.359Z,1.10
2023-02-19T06:44:27.673Z,1.20
2023-02-19T06:46:58.109Z,1.30
2023-02-19T06:49:28.641Z,1.20
2023-02-19T06:52:00.501Z,0.90
2023-02-19T06:54:31.457Z,1.20
2023-02-19T06:57:02.177Z,1.30
2023-02-19T06:59:32.453Z,1.30
2023-02-19T07:02:02.755Z,1.10
2023-02-19T07:04:33.172Z,1.20
2023-02-19T07:07:03.645Z,1.10
2023-02-19T07:09:33.998Z,1.20
2023-02-19T07:12:05.174Z,1.60
2023-02-19T07:14:35.866Z,1.20
2023-02-19T07:17:06.221Z,1.50
2023-02-19T07:19:36.544Z,1.30
2023-02-19T07:22:06.952Z,1.30
2023-02-19T07:24:37.258Z,1.90
2023-02-19T07:27:07.578Z,1.40
2023-02-19T07:29:38.510Z,1.60
2023-02-19T07:32:08.961Z,1.90
2023-02-19T07:34:39.405Z,1.20
2023-02-19T07:37:09.675Z,1.50
2023-02-19T07:39:40.005Z,2.00
2023-02-19T07:42:10.408Z,2.00
2023-02-19T07:44:41.446Z,1.50
2023-02-19T07:47:11.825Z,1.60
2023-02-19T07:49:42.193Z,1.70
2023-02-19T07:52:12.728Z,1.70
2023-02-19T07:54:44.789Z,1.80
2023-02-19T07:57:15.531Z,1.90
2023-02-19T07:59:45.896Z,2.00
2023-02-19T08:02:37.666Z,1.50
2023-02-19T08:05:09.004Z,1.70
2023-02-19T08:07:39.488Z,1.60
2023-02-19T08:10:33.611Z,3.60
2023-02-19T08:13:21.908Z,1.80
2023-02-19T08:15:55.115Z,1.80
2023-02-19T08:18:28.676Z,2.20
2023-02-19T08:21:00.046Z,2.10
2023-02-19T08:23:30.872Z,2.10
2023-02-19T08:26:02.547Z,1.90
2023-02-19T08:28:32.951Z,2.10
2023-02-19T08:31:05.469Z,1.70
2023-02-19T08:33:36.403Z,2.10
2023-02-19T08:36:08.872Z,2.40
2023-02-19T08:38:39.804Z,1.90
2023-02-19T08:41:12.073Z,2.10
2023-02-19T08:43:43.134Z,2.00
2023-02-19T08:46:14.088Z,3.90
2023-02-19T08:48:44.488Z,2.20
2023-02-19T08:51:15.153Z,2.60
2023-02-19T08:53:46.744Z,2.20
2023-02-19T08:56:18.575Z,1.70
2023-02-19T08:58:48.944Z,1.80
2023-02-19T09:01:20.765Z,2.90
2023-02-19T09:03:51.310Z,2.50
2023-02-19T09:06:22.320Z,2.40
2023-02-19T09:08:52.720Z,1.90
2023-02-19T09:11:23.699Z,2.70
2023-02-19T09:13:56.402Z,2.60
2023-02-19T09:16:26.760Z,2.20
2023-02-19T09:18:57.229Z,1.90
2023-02-19T09:21:27.688Z,1.90
2023-02-19T09:23:58.055Z,2.20
2023-02-19T09:26:28.517Z,2.90
2023-02-19T09:28:58.865Z,2.90
2023-02-19T09:31:29.560Z,2.60
2023-02-19T09:33:59.995Z,3.30
2023-02-19T09:36:30.403Z,3.50
2023-02-19T09:39:02.000Z,2.00
2023-02-19T09:41:36.745Z,2.10
2023-02-19T09:44:12.218Z,3.30
2023-02-19T09:46:46.741Z,2.50
2023-02-19T09:49:22.139Z,2.60
2023-02-19T09:51:56.774Z,2.10
2023-02-19T09:54:31.110Z,1.90
2023-02-19T09:57:04.801Z,2.70
2023-02-19T09:59:42.143Z,2.20
2023-02-19T10:02:18.793Z,2.10
2023-02-19T10:04:52.821Z,2.00
2023-02-19T10:07:26.643Z,2.70
2023-02-19T10:09:59.879Z,2.40
2023-02-19T10:12:35.805Z,2.00
2023-02-19T10:15:16.398Z,2.30
2023-02-19T10:17:47.845Z,2.90
2023-02-19T10:20:24.951Z,2.80
2023-02-19T10:23:01.898Z,2.90
2023-02-19T10:25:34.905Z,2.80
2023-02-19T10:28:08.053Z,2.50
2023-02-19T10:30:40.128Z,2.20
2023-02-19T10:33:14.850Z,2.80
2023-02-19T10:35:56.951Z,3.60
2023-02-19T10:45:21.321Z,3.10
2023-02-19T10:47:52.069Z,3.60
2023-02-19T10:50:29.217Z,3.30
2023-02-19T10:53:00.975Z,3.10
2023-02-19T10:55:36.752Z,3.50
2023-02-19T10:58:27.863Z,4.10
2023-02-19T11:01:15.652Z,3.70
2023-02-19T11:03:48.121Z,3.20
2023-02-19T11:06:24.948Z,6.90
2023-02-19T11:09:01.643Z,5.40
2023-02-19T11:11:46.144Z,4.00
2023-02-19T11:14:19.454Z,3.70
2023-02-19T11:16:52.299Z,4.10
2023-02-19T11:19:42.375Z,4.00
2023-02-19T11:22:28.557Z,3.60
2023-02-19T11:24:59.624Z,3.40
2023-02-19T11:27:30.055Z,3.40
2023-02-19T11:30:34.479Z,3.40
2023-02-19T11:33:31.980Z,3.80
2023-02-19T11:36:30.270Z,3.60
2023-02-19T11:39:04.264Z,3.70
2023-02-19T11:42:03.924Z,3.00
2023-02-19T11:44:43.934Z,3.60
2023-02-19T11:47:37.260Z,3.40
2023-02-19T11:50:15.628Z,3.60
2023-02-19T11:52:53.936Z,3.40
2023-02-19T11:55:45.919Z,3.00
2023-02-19T11:58:56.226Z,3.00
2023-02-19T12:01:36.059Z,3.30
2023-02-19T12:04:37.760Z,3.70
2023-02-19T12:07:18.441Z,2.90
2023-02-19T12:10:01.710Z,3.30
2023-02-19T12:12:52.973Z,3.50
2023-02-19T12:16:11.319Z,3.40
2023-02-19T12:19:13.627Z,4.80
2023-02-19T12:22:20.945Z,3.60
2023-02-19T12:25:37.172Z,3.60
2023-02-19T12:28:43.053Z,4.60
2023-02-19T12:34:52.422Z,3.60
2023-02-19T12:37:48.208Z,3.80
2023-02-19T12:40:28.107Z,2.70
2023-02-19T12:43:06.660Z,3.00
2023-02-19T12:45:41.377Z,3.20
2023-02-19T12:48:16.246Z,3.30
2023-02-19T12:50:48.956Z,3.10
2023-02-19T12:53:29.339Z,3.30
2023-02-19T12:56:00.186Z,3.30
2023-02-19T12:58:33.518Z,3.70
2023-02-19T13:01:04.450Z,3.80
2023-02-19T13:03:39.066Z,3.60
2023-02-19T13:06:24.839Z,3.20
2023-02-19T13:09:06.458Z,3.20
2023-02-19T13:11:39.753Z,3.40
2023-02-19T13:15:16.056Z,3.90
2023-02-19T13:17:59.882Z,3.30
2023-02-19T13:20:34.211Z,3.60
2023-02-19T13:26:10.432Z,2.70
2023-02-19T13:28:50.180Z,3.50
2023-02-19T13:31:42.951Z,3.40
2023-02-19T13:34:21.663Z,2.30
2023-02-19T13:36:52.347Z,4.30
2023-02-19T13:39:23.374Z,2.80
2023-02-19T13:42:05.732Z,2.90
2023-02-19T13:44:36.606Z,3.30
2023-02-19T13:47:07.736Z,2.80
2023-02-19T13:49:47.063Z,2.30
2023-02-19T13:52:43.471Z,2.60
2023-02-19T13:55:48.476Z,2.30
2023-02-19T13:58:49.871Z,2.40
2023-02-19T14:01:20.253Z,2.00
2023-02-19T14:03:56.063Z,2.00
2023-02-19T14:06:28.723Z,2.40
2023-02-19T14:09:00.412Z,2.40
2023-02-19T14:12:04.178Z,2.20
2023-02-19T14:14:39.421Z,2.40
2023-02-19T14:17:29.744Z,1.80
2023-02-19T14:20:01.979Z,2.00
2023-02-19T14:23:01.436Z,1.90
2023-02-19T14:25:38.179Z,1.90
2023-02-19T14:28:17.915Z,1.80
2023-02-19T14:30:51.791Z,1.90
2023-02-19T14:33:25.066Z,1.60
2023-02-19T14:35:59.268Z,1.60
2023-02-19T14:38:31.460Z,1.70
2023-02-19T14:41:01.996Z,2.20
2023-02-19T14:43:33.419Z,7.00
2023-02-19T14:46:08.335Z,3.20
2023-02-19T14:48:40.918Z,2.20
2023-02-19T14:51:17.776Z,1.80
2023-02-19T14:53:48.222Z,1.90
2023-02-19T14:56:22.398Z,1.80
2023-02-19T14:59:10.165Z,1.90
2023-02-19T15:01:40.908Z,2.10
2023-02-19T15:04:24.145Z,2.80
2023-02-19T15:06:56.982Z,2.00
2023-02-19T15:09:34.390Z,2.40
2023-02-19T15:12:06.089Z,1.80
2023-02-19T15:14:36.642Z,2.00
2023-02-19T15:17:07.973Z,2.20
2023-02-19T15:19:39.635Z,2.50
2023-02-19T15:22:15.359Z,2.30
2023-02-19T15:24:48.660Z,2.30
2023-02-19T15:27:23.035Z,2.20
2023-02-19T15:29:54.553Z,2.20
2023-02-19T15:32:27.105Z,2.00
2023-02-19T15:34:58.920Z,2.60
2023-02-19T15:37:30.354Z,2.00
2023-02-19T15:40:02.251Z,1.80
2023-02-19T15:42:34.922Z,1.20
2023-02-19T15:45:12.264Z,2.00
2023-02-19T15:47:46.690Z,1.50
2023-02-19T15:50:18.686Z,1.60
2023-02-19T15:52:51.447Z,2.00
2023-02-19T15:55:30.100Z,1.40
2023-02-19T15:58:08.553Z,1.00
2023-02-19T16:00:43.184Z,1.10
2023-02-19T16:03:19.755Z,1.10
2023-02-19T16:06:00.534Z,1.20
2023-02-19T16:08:33.148Z,1.40
2023-02-19T16:11:05.387Z,1.50
2023-02-19T16:13:36.939Z,1.10
2023-02-19T16:16:17.106Z,1.20
2023-02-19T16:18:49.753Z,1.40
2023-02-19T16:21:23.142Z,1.60
2023-02-19T16:23:59.858Z,1.50
2023-02-19T16:26:31.820Z,1.50
2023-02-19T16:29:02.173Z,1.40
2023-02-19T16:31:32.623Z,1.10
2023-02-19T16:34:19.435Z,1.30
2023-02-19T16:36:49.962Z,1.40
2023-02-19T16:39:22.172Z,1.80
2023-02-19T16:42:19.203Z,2.10
2023-02-19T16:44:50.203Z,1.60
2023-02-19T16:47:27.702Z,1.60
2023-02-19T16:50:00.013Z,2.00
2023-02-19T16:52:31.116Z,2.80
2023-02-19T16:55:01.757Z,3.30
2023-02-19T16:57:32.369Z,3.60
2023-02-19T17:00:02.689Z,3.30
2023-02-19T17:02:33.389Z,2.10
2023-02-19T17:05:04.220Z,2.10
2023-02-19T17:07:34.553Z,2.30
2023-02-19T17:10:05.073Z,2.60
2023-02-19T17:12:35.781Z,1.90
2023-02-19T17:15:06.508Z,1.70
2023-02-19T17:17:36.802Z,2.30
2023-02-19T17:20:20.422Z,2.50
2023-02-19T17:25:19.690Z,5.20
2023-02-19T17:27:50.221Z,4.20
2023-02-19T17:30:24.920Z,2.50
2023-02-19T17:32:55.300Z,2.20
2023-02-19T17:35:25.792Z,2.10
2023-02-19T17:37:56.107Z,3.00
2023-02-19T17:40:33.057Z,2.70
2023-02-19T17:43:04.181Z,2.40
2023-02-19T17:48:28.855Z,2.90
2023-02-19T17:50:59.824Z,3.40
2023-02-19T17:53:30.642Z,2.60
2023-02-19T17:56:00.938Z,3.30
2023-02-19T17:58:31.241Z,2.90
2023-02-19T18:01:01.810Z,4.50
2023-02-19T18:03:32.174Z,2.70
2023-02-19T18:06:02.523Z,2.60
2023-02-19T18:08:35.258Z,2.70
2023-02-19T18:11:07.284Z,2.40
2023-02-19T18:13:37.801Z,2.80
2023-02-19T18:16:09.979Z,2.10
2023-02-19T18:18:40.432Z,2.90
2023-02-19T18:21:12.476Z,2.80
2023-02-19T18:23:48.141Z,2.60
2023-02-19T18:26:24.627Z,2.60
2023-02-19T18:28:55.089Z,2.80
2023-02-19T18:31:28.277Z,2.30
2023-02-19T18:33:58.788Z,2.60
2023-02-19T18:36:29.257Z,2.80
2023-02-19T18:39:00.910Z,2.40
2023-02-19T18:41:31.670Z,2.40
2023-02-19T18:44:02.228Z,2.50
2023-02-19T18:46:33.087Z,2.40
2023-02-19T18:49:09.480Z,2.80
2023-02-19T18:51:41.408Z,2.80
2023-02-19T18:54:12.056Z,2.10
2023-02-19T18:56:46.860Z,2.60
2023-02-19T18:59:17.616Z,2.70
2023-02-19T19:01:48.294Z,2.70
2023-02-19T19:04:18.786Z,2.90
2023-02-19T19:06:49.172Z,2.30
2023-02-19T19:09:19.533Z,2.90
2023-02-19T19:11:49.845Z,3.20
2023-02-19T19:14:20.158Z,2.90
2023-02-19T19:16:51.023Z,2.60
2023-02-19T19:19:24.382Z,3.30
2023-02-19T19:21:56.445Z,3.00
2023-02-19T19:24:27.810Z,3.10
2023-02-19T19:27:01.351Z,3.20
2023-02-19T19:29:33.482Z,3.30
2023-02-19T19:32:08.191Z,3.70
2023-02-19T19:34:42.862Z,3.70
2023-02-19T19:37:14.295Z,3.10
2023-02-19T19:39:51.084Z,3.60
2023-02-19T19:42:24.351Z,4.00
2023-02-19T19:45:00.332Z,3.40
2023-02-19T19:47:33.196Z,4.00
2023-02-19T19:52:40.091Z,3.70
2023-02-19T19:55:16.276Z,3.40
2023-02-19T19:57:50.217Z,4.30
2023-02-19T20:00:25.082Z,4.40
2023-02-19T20:02:56.881Z,4.30
2023-02-19T20:05:29.066Z,3.90
2023-02-19T20:08:01.199Z,4.40
2023-02-19T20:10:34.261Z,3.90
2023-02-19T20:13:07.077Z,4.20
2023-02-19T20:18:10.903Z,4.00
2023-02-19T20:20:43.722Z,5.00
2023-02-19T20:23:15.864Z,4.40
2023-02-19T20:25:47.116Z,4.80
2023-02-19T20:28:18.443Z,4.90
2023-02-19T20:30:51.171Z,5.50
2023-02-19T20:33:23.500Z,5.30
2023-02-19T20:35:56.891Z,4.90
2023-02-19T20:46:16.476Z,4.50
2023-02-19T20:48:47.252Z,4.30
2023-02-19T20:51:17.647Z,4.30
2023-02-19T20:53:48.628Z,4.40
2023-02-19T20:56:19.119Z,4.30
2023-02-19T20:58:49.494Z,5.00
2023-02-19T21:01:19.868Z,4.40
2023-02-19T21:03:50.395Z,4.00
2023-02-19T21:06:20.707Z,4.10
2023-02-19T21:08:51.019Z,4.40
2023-02-19T21:11:21.553Z,4.90
2023-02-19T21:13:51.953Z,4.30
2023-02-19T21:16:22.703Z,5.60
2023-02-19T21:18:53.078Z,5.90
2023-02-19T21:21:26.269Z,4.20
2023-02-19T21:23:57.879Z,4.90
2023-02-19T21:26:35.491Z,4.10
2023-02-19T21:29:06.626Z,4.70
2023-02-19T21:31:41.680Z,5.00
2023-02-19T21:34:14.082Z,4.90
2023-02-19T21:36:45.339Z,4.90
2023-02-19T21:39:17.302Z,5.30
2023-02-19T21:41:47.965Z,5.90
2023-02-19T21:44:18.727Z,4.80
2023-02-19T21:46:49.184Z,4.70
2023-02-19T21:49:20.033Z,5.50
2023-02-19T21:51:50.438Z,4.60
2023-02-19T21:54:24.563Z,5.70
2023-02-19T21:56:56.236Z,6.70
2023-02-19T21:59:26.618Z,5.10
2023-02-19T22:01:57.687Z,5.20
2023-02-19T22:04:28.039Z,4.50
2023-02-19T22:06:58.906Z,4.50
2023-02-19T22:09:29.560Z,5.60
2023-02-19T22:12:00.113Z,5.50
2023-02-19T22:14:30.425Z,5.30
2023-02-19T22:17:00.738Z,5.30
2023-02-19T22:19:31.076Z,5.40
2023-02-19T22:22:01.402Z,4.90
2023-02-19T22:24:31.740Z,5.20
2023-02-19T22:27:02.113Z,5.90
2023-02-19T22:29:32.605Z,5.60
2023-02-19T22:32:03.165Z,5.30
2023-02-19T22:34:33.552Z,5.70
2023-02-19T22:37:03.921Z,5.00
2023-02-19T22:39:34.349Z,5.30
2023-02-19T22:42:05.005Z,5.60
2023-02-19T22:44:35.384Z,5.60
2023-02-19T22:47:05.866Z,5.50
2023-02-19T22:49:38.395Z,4.80
2023-02-19T22:52:10.764Z,5.20
2023-02-19T22:54:41.562Z,5.40
2023-02-19T22:57:11.909Z,5.00
2023-02-19T22:59:42.279Z,6.20
2023-02-19T23:02:13.125Z,5.50
2023-02-19T23:04:43.480Z,5.50
2023-02-19T23:07:13.791Z,6.10
2023-02-19T23:09:44.114Z,6.10
2023-02-19T23:12:14.600Z,4.90
2023-02-19T23:14:47.000Z,5.50
2023-02-19T23:17:17.400Z,5.80
2023-02-19T23:19:47.780Z,4.60
2023-02-19T23:22:18.250Z,5.00
2023-02-19T23:24:48.598Z,4.90
2023-02-19T23:27:19.012Z,5.50
2023-02-19T23:29:49.459Z,5.50
2023-02-19T23:32:21.173Z,5.20
2023-02-19T23:34:51.893Z,5.40
2023-02-19T23:37:22.252Z,4.90
2023-02-19T23:39:52.646Z,5.90
2023-02-19T23:42:22.983Z,4.70
2023-02-19T23:44:53.782Z,5.10
2023-02-19T23:47:26.611Z,4.90
2023-02-19T23:49:57.151Z,5.10
2023-02-19T23:52:27.778Z,4.50
2023-02-19T23:54:59.767Z,5.90
2023-02-19T23:57:30.183Z,5.90
